EBLG

Liège Airport

Liège, Belgium
METAR EBLG 140120Z 06004KT 9999 SCT032 M02/M06 Q1019 NOSIG
Observed Flight Rules
Dec-14 @ 01:20 UTC (12 minutes ago) Visual Flight Rules
Wind Visibility Clouds
60° at 4 knots 10,000+ meters
  • Scattered at 3,200' AGL
Temperatures Readings
Current -2°C / 28°F
Dewpoint -6°C / 21°F
Humidity 74%
Altimeter 30.09" Hg
Pressure 1019 hPa
Elevation 178
METAR EBLG 140120Z 06004KT 9999 SCT032 M02/M06 Q1019 NOSIG
Observed Flight Rules
Dec-14 @ 01:20 UTC
(12 minutes ago)
VFR
Wind Visibility
60° at 4 knots 10,000+ meters
Clouds
  • Scattered at 3,200' AGL
Temperature Dewpoint
-2°C / 28°F -6°C / 21°F
Humidity Altimeter Pressure
74% 30.09" Hg 1019 hPa